Atlanta, Georgia
Traffic Map
Current Weather Conditions
Atlanta, Georgia
Overcast
Overcast
49°
Feels Like: 46°
Wind Chill: 46° Ceiling: 1000
Heat Index: 49° Visibility: 8mi
Dew Point: 44° Wind: 7mph
Humidity: 83% Direction: 100° (E)
Pressure: 30.11in Gusts: 0mph
Raw Report DataKATL 211952Z 10006KT 8SM OVC010 09/07 A3011 RMK AO2 SLP199 T00940067
Traffic Incident Summary
Active as of:
Severity:
Category:
InformationThere was an issue retrieving the traffic information for this location. Please try a different location or try again shortly.
Advertisements
Track Severe Weather on mobile